Time;durP1;ratioP1;P1;durP2;ratioP2;P2;SDS_P1;SDS_P2;PMS_P1;PMS_P2;Temp;Humidity;BMP_temperature;BMP_pressure;BME280_temperature;BME280_humidity;BME280_pressure;Samples;Min_cycle;Max_cycle;Signal;HPM_P1;HPM_P2
2021/09/24 00:01:14;;;;;;;4.63;0.80;;;16.40;99.90;;;;;;5011170;28;20049;-83
2021/09/24 00:03:40;;;;;;;7.40;1.08;;;16.40;99.90;;;;;;5039391;28;20034;-84
2021/09/24 00:06:07;;;;;;;3.67;0.80;;;16.40;99.90;;;;;;5008201;28;20045;-86
2021/09/24 00:08:34;;;;;;;4.32;0.98;;;16.40;99.90;;;;;;5027804;28;20037;-86
2021/09/24 00:11:00;;;;;;;6.85;0.90;;;16.40;99.90;;;;;;5011216;28;20041;-86
2021/09/24 00:13:27;;;;;;;4.22;1.30;;;16.40;99.90;;;;;;5028432;28;20052;-86
2021/09/24 00:15:54;;;;;;;5.70;0.80;;;16.40;99.90;;;;;;5010269;28;20049;-86
2021/09/24 00:18:21;;;;;;;3.38;0.90;;;16.40;99.90;;;;;;5028451;28;20400;-85
2021/09/24 00:20:47;;;;;;;4.72;1.05;;;16.40;99.90;;;;;;5041411;28;20037;-85
2021/09/24 00:23:14;;;;;;;3.55;1.15;;;16.40;99.90;;;;;;5011283;28;20045;-84
2021/09/24 00:25:42;;;;;;;5.85;1.55;;;16.40;99.90;;;;;;5013760;28;20049;-86
2021/09/24 00:28:08;;;;;;;5.47;1.20;;;16.40;99.90;;;;;;5010767;28;20053;-85
2021/09/24 00:30:36;;;;;;;5.40;1.55;;;16.40;99.90;;;;;;5014010;28;20056;-86
2021/09/24 00:33:03;;;;;;;6.32;1.95;;;16.30;99.90;;;;;;5045066;28;20022;-86
2021/09/24 00:35:35;;;;;;;7.45;2.38;;;16.40;99.90;;;;;;5030409;28;20022;-86
2021/09/24 00:38:02;;;;;;;7.60;1.27;;;16.30;99.90;;;;;;5027754;28;20034;-86
2021/09/24 00:40:34;;;;;;;8.50;2.05;;;16.30;99.90;;;;;;5015449;28;20049;-86
2021/09/24 00:43:02;;;;;;;7.57;1.45;;;16.30;99.90;;;;;;5028518;28;20025;-86
2021/09/24 00:45:28;;;;;;;6.95;1.35;;;16.30;99.90;;;;;;5030447;28;20385;-86
2021/09/24 00:47:55;;;;;;;10.05;1.58;;;16.30;99.90;;;;;;5009262;28;20056;-86
2021/09/24 00:50:22;;;;;;;4.85;1.08;;;16.30;99.90;;;;;;5001591;28;20523;-86
2021/09/24 00:52:53;;;;;;;7.75;1.73;;;16.30;99.90;;;;;;5028348;28;20049;-86
2021/09/24 00:55:21;;;;;;;6.18;2.13;;;16.30;99.90;;;;;;5027806;28;20087;-86
2021/09/24 00:57:48;;;;;;;5.70;1.40;;;16.30;99.90;;;;;;5010269;28;20040;-86
2021/09/24 01:00:16;;;;;;;7.15;1.55;;;16.30;99.90;;;;;;5012789;28;20060;-86
2021/09/24 01:02:43;;;;;;;11.05;2.08;;;16.30;99.90;;;;;;5043337;28;20037;-87
2021/09/24 01:05:49;;;;;;;8.88;1.85;;;16.40;99.90;;;;;;5011337;28;20520;-86
2021/09/24 01:08:19;;;;;;;6.30;2.10;;;16.30;99.90;;;;;;5029620;28;20040;-88
2021/09/24 01:10:45;;;;;;;9.02;1.52;;;16.30;99.90;;;;;;5026455;28;20484;-86
2021/09/24 01:13:15;;;;;;;6.75;2.03;;;16.30;99.90;;;;;;5016891;28;20396;-86
2021/09/24 01:15:42;;;;;;;8.07;2.42;;;16.30;99.90;;;;;;5035070;28;20037;-87
2021/09/24 01:18:08;;;;;;;7.30;2.33;;;16.30;99.90;;;;;;5030810;28;20026;-85
2021/09/24 01:20:38;;;;;;;7.25;2.45;;;16.40;99.90;;;;;;5015149;28;20053;-85
2021/09/24 01:23:04;;;;;;;6.35;2.22;;;16.40;99.90;;;;;;5045352;28;20040;-86
2021/09/24 01:25:36;;;;;;;6.95;1.77;;;16.30;99.90;;;;;;5042336;28;20030;-86
2021/09/24 01:28:03;;;;;;;8.07;1.50;;;16.30;99.90;;;;;;5019835;28;20040;-85
2021/09/24 01:30:30;;;;;;;5.38;1.23;;;16.30;99.90;;;;;;5035183;28;20048;-84
2021/09/24 01:32:56;;;;;;;6.85;1.92;;;16.40;99.90;;;;;;5008944;28;20038;-84
2021/09/24 01:35:23;;;;;;;9.75;1.75;;;16.30;99.90;;;;;;5013279;28;20037;-85
2021/09/24 01:37:50;;;;;;;5.57;1.67;;;16.30;99.90;;;;;;4993674;28;20042;-84
2021/09/24 01:40:19;;;;;;;8.55;2.08;;;16.30;99.90;;;;;;5012081;28;20049;-89
2021/09/24 01:42:51;;;;;;;5.60;1.20;;;16.30;99.90;;;;;;5009120;28;20056;-85
2021/09/24 01:45:24;;;;;;;8.05;1.48;;;16.30;99.90;;;;;;5028000;28;20041;-86
2021/09/24 01:47:51;;;;;;;5.93;1.38;;;16.30;99.90;;;;;;5009037;28;20045;-85
2021/09/24 01:50:18;;;;;;;6.28;1.45;;;16.30;99.90;;;;;;5012781;28;20054;-85
2021/09/24 01:52:54;;;;;;;5.15;1.63;;;16.30;99.90;;;;;;5026510;28;20531;-85
2021/09/24 01:55:21;;;;;;;8.95;1.83;;;16.30;99.90;;;;;;5011281;28;20041;-85
2021/09/24 01:57:48;;;;;;;5.13;1.85;;;16.30;99.90;;;;;;5008587;28;20037;-86
2021/09/24 02:00:15;;;;;;;5.13;1.65;;;16.30;99.90;;;;;;5013691;28;20053;-86
2021/09/24 02:02:41;;;;;;;7.40;1.92;;;16.30;99.90;;;;;;5009464;28;20037;-86
2021/09/24 02:05:08;;;;;;;8.07;2.00;;;16.30;99.90;;;;;;5011458;28;20049;-86
2021/09/24 02:07:35;;;;;;;7.82;2.22;;;16.30;99.90;;;;;;4992397;28;20056;-86
2021/09/24 02:10:04;;;;;;;9.90;1.75;;;16.30;99.90;;;;;;5025492;28;20038;-86
2021/09/24 02:12:33;;;;;;;5.90;1.83;;;16.30;99.90;;;;;;5010234;28;20037;-87
2021/09/24 02:15:00;;;;;;;10.68;2.15;;;16.30;99.90;;;;;;5027023;28;20033;-86
2021/09/24 02:17:27;;;;;;;5.68;2.22;;;16.20;99.90;;;;;;5009492;28;20061;-85
2021/09/24 02:19:56;;;;;;;5.45;1.88;;;16.30;99.90;;;;;;5009063;28;20044;-86
2021/09/24 02:22:26;;;;;;;6.13;1.85;;;16.20;99.90;;;;;;5027672;28;20049;-86
2021/09/24 02:24:53;;;;;;;8.40;1.80;;;16.30;99.90;;;;;;5024651;28;20037;-86
2021/09/24 02:27:20;;;;;;;8.00;1.90;;;16.30;99.90;;;;;;5010729;28;20045;-86
2021/09/24 02:29:46;;;;;;;5.53;2.22;;;16.30;99.90;;;;;;5011794;28;20052;-86
2021/09/24 02:32:13;;;;;;;10.50;2.85;;;16.30;99.90;;;;;;5010694;28;20049;-87
2021/09/24 02:34:40;;;;;;;8.93;2.40;;;16.30;99.90;;;;;;5011332;28;20049;-87
2021/09/24 02:37:06;;;;;;;6.75;2.45;;;16.30;99.90;;;;;;5009511;28;20058;-87
2021/09/24 02:39:36;;;;;;;5.43;2.00;;;16.30;99.90;;;;;;5011395;28;20041;-86
2021/09/24 02:42:06;;;;;;;7.20;1.92;;;16.30;99.90;;;;;;5025225;28;20042;-86
2021/09/24 02:44:32;;;;;;;5.97;1.95;;;16.30;99.90;;;;;;5020171;28;20489;-86
2021/09/24 02:47:09;;;;;;;6.63;1.70;;;16.30;99.90;;;;;;5024468;28;20350;-86
2021/09/24 02:49:38;;;;;;;6.35;2.30;;;16.30;99.90;;;;;;5009076;28;20053;-86
2021/09/24 02:52:06;;;;;;;8.63;3.38;;;16.30;99.90;;;;;;5027554;28;20034;-86
2021/09/24 02:54:33;;;;;;;11.93;3.40;;;16.30;99.90;;;;;;5043113;28;20486;-86
2021/09/24 02:56:59;;;;;;;9.68;2.45;;;16.20;99.90;;;;;;5007808;28;20045;-86
2021/09/24 02:59:26;;;;;;;8.60;2.47;;;16.20;99.90;;;;;;5009883;28;20046;-86
2021/09/24 03:01:54;;;;;;;6.25;3.05;;;16.30;99.90;;;;;;5011387;28;20763;-86
2021/09/24 03:04:25;;;;;;;7.22;2.70;;;16.30;99.90;;;;;;5024179;28;20044;-86
2021/09/24 03:06:52;;;;;;;8.23;2.80;;;16.20;99.90;;;;;;5012670;28;20400;-86
2021/09/24 03:09:18;;;;;;;6.63;2.63;;;16.20;99.90;;;;;;5008483;28;20513;-86
2021/09/24 03:11:45;;;;;;;5.57;3.25;;;16.20;99.90;;;;;;5026211;28;20045;-86
2021/09/24 03:14:12;;;;;;;8.82;2.67;;;16.30;99.90;;;;;;5025036;28;20056;-86
2021/09/24 03:16:41;;;;;;;7.47;2.45;;;16.20;99.90;;;;;;5024282;28;20789;-86
2021/09/24 03:19:08;;;;;;;8.80;2.60;;;16.30;99.90;;;;;;5026716;28;20030;-88
2021/09/24 03:21:36;;;;;;;7.50;2.33;;;16.30;99.90;;;;;;5008311;28;20569;-88
2021/09/24 03:24:03;;;;;;;6.28;2.50;;;16.30;99.90;;;;;;5040406;28;20040;-86
2021/09/24 03:26:30;;;;;;;8.82;2.85;;;16.30;99.90;;;;;;5010776;28;20064;-87
2021/09/24 03:28:57;;;;;;;4.45;1.92;;;16.30;99.90;;;;;;4993261;28;20057;-88
2021/09/24 03:31:26;;;;;;;4.88;2.33;;;16.30;99.90;;;;;;5012838;28;20066;-87
2021/09/24 03:33:56;;;;;;;8.52;2.80;;;16.20;99.90;;;;;;5045118;28;20033;-87
2021/09/24 03:36:22;;;;;;;8.15;2.50;;;16.20;99.90;;;;;;5030127;28;20029;-87
2021/09/24 03:38:49;;;;;;;8.18;2.72;;;16.20;99.90;;;;;;5011739;28;20052;-87
2021/09/24 03:41:15;;;;;;;6.30;2.58;;;16.20;99.90;;;;;;5012869;28;20119;-87
2021/09/24 03:43:42;;;;;;;7.07;2.40;;;16.20;99.90;;;;;;5027978;28;20041;-86
2021/09/24 03:46:09;;;;;;;9.73;1.95;;;16.20;99.90;;;;;;5012242;28;20058;-87
2021/09/24 03:48:35;;;;;;;8.32;3.10;;;16.20;99.90;;;;;;5010861;28;20049;-87
2021/09/24 03:51:02;;;;;;;9.13;2.85;;;16.10;99.90;;;;;;5012771;28;20057;-88
2021/09/24 03:53:31;;;;;;;5.22;3.10;;;16.10;99.90;;;;;;5008707;28;20392;-88
2021/09/24 03:55:57;;;;;;;5.97;3.00;;;16.00;99.90;;;;;;5013717;28;20045;-87
2021/09/24 03:58:24;;;;;;;8.90;3.08;;;15.90;99.90;;;;;;5045549;28;20037;-86
2021/09/24 04:00:54;;;;;;;5.80;3.58;;;15.90;99.90;;;;;;5050212;28;20048;-89
2021/09/24 04:03:29;;;;;;;7.63;4.18;;;15.80;99.90;;;;;;5014879;28;20404;-89
2021/09/24 04:05:55;;;;;;;8.10;3.78;;;15.80;99.90;;;;;;5013170;28;20504;-84
2021/09/24 04:08:23;;;;;;;8.77;4.43;;;15.70;99.90;;;;;;5029492;28;20117;-89
2021/09/24 04:10:51;;;;;;;9.02;5.10;;;15.80;99.90;;;;;;4995888;28;20064;-83
2021/09/24 04:13:18;;;;;;;11.00;7.10;;;15.80;99.90;;;;;;5011873;28;20038;-84
2021/09/24 04:15:45;;;;;;;11.02;8.68;;;15.80;99.90;;;;;;5030608;28;20045;-83
2021/09/24 04:18:12;;;;;;;14.55;7.78;;;15.80;99.90;;;;;;5015671;28;20041;-84
2021/09/24 04:20:38;;;;;;;13.68;9.45;;;15.80;99.90;;;;;;5029377;28;20033;-85
2021/09/24 04:23:06;;;;;;;19.20;10.60;;;15.80;99.90;;;;;;5011765;28;20052;-88
2021/09/24 04:25:35;;;;;;;13.07;10.40;;;15.80;99.90;;;;;;5013142;28;20046;-84
2021/09/24 04:28:02;;;;;;;12.43;8.60;;;15.80;99.90;;;;;;5011154;28;20392;-84
2021/09/24 04:30:29;;;;;;;17.75;12.63;;;15.80;99.90;;;;;;4996913;28;20057;-84
2021/09/24 04:32:56;;;;;;;18.83;13.75;;;15.80;99.90;;;;;;5010828;28;20042;-85
2021/09/24 04:35:25;;;;;;;20.58;13.65;;;15.80;99.90;;;;;;5014444;28;20168;-84
2021/09/24 04:37:52;;;;;;;19.63;14.88;;;15.80;99.90;;;;;;5009665;28;20916;-85
2021/09/24 04:40:18;;;;;;;19.80;15.50;;;15.80;99.90;;;;;;5030500;28;20042;-85
2021/09/24 04:42:45;;;;;;;21.50;14.65;;;15.80;99.90;;;;;;5010739;28;20037;-87
2021/09/24 04:45:12;;;;;;;24.33;16.02;;;15.80;99.90;;;;;;5015601;28;20159;-87
2021/09/24 04:47:39;;;;;;;17.25;15.13;;;15.80;99.90;;;;;;5009933;28;20041;-88
2021/09/24 04:50:07;;;;;;;21.77;17.75;;;15.80;99.90;;;;;;5026858;28;20064;-87
2021/09/24 04:52:34;;;;;;;22.95;17.00;;;15.80;99.90;;;;;;5015382;28;20053;-86
2021/09/24 04:55:01;;;;;;;16.92;13.95;;;15.80;99.90;;;;;;5009624;28;20041;-88
2021/09/24 04:57:27;;;;;;;24.80;19.17;;;15.80;99.90;;;;;;5000888;28;20037;-88
2021/09/24 04:59:54;;;;;;;23.02;17.48;;;15.90;99.90;;;;;;5010287;28;20037;-86
2021/09/24 05:02:20;;;;;;;25.92;19.80;;;15.90;99.90;;;;;;4996115;28;20056;-88
2021/09/24 05:04:47;;;;;;;28.00;21.17;;;15.90;99.90;;;;;;5011865;28;20054;-87
2021/09/24 05:07:17;;;;;;;28.88;20.63;;;15.90;99.90;;;;;;5026944;28;20047;-85
2021/09/24 05:09:46;;;;;;;31.45;21.55;;;15.90;99.90;;;;;;5014565;28;20063;-91
2021/09/24 05:12:13;;;;;;;29.92;21.48;;;15.90;99.90;;;;;;5027454;28;20045;-86
2021/09/24 05:14:39;;;;;;;32.45;22.20;;;15.90;99.90;;;;;;5013967;28;20045;-86
2021/09/24 05:17:06;;;;;;;28.70;21.23;;;15.90;99.90;;;;;;5009185;28;20044;-86
2021/09/24 05:19:33;;;;;;;33.97;23.35;;;15.90;99.90;;;;;;5010544;28;20045;-86
2021/09/24 05:22:00;;;;;;;36.88;23.83;;;16.00;99.90;;;;;;5010514;28;20519;-86
2021/09/24 05:24:27;;;;;;;36.33;23.48;;;16.00;99.90;;;;;;5010280;28;20412;-86
2021/09/24 05:27:19;;;;;;;35.75;23.02;;;16.00;99.90;;;;;;5004252;28;20041;-88
2021/09/24 05:29:49;;;;;;;47.20;28.27;;;16.10;99.90;;;;;;5010032;28;20052;-84
2021/09/24 05:32:17;;;;;;;43.25;26.42;;;16.00;99.90;;;;;;5026443;28;20045;-85
2021/09/24 05:34:43;;;;;;;39.58;24.10;;;16.00;99.90;;;;;;5001003;28;20413;-84
2021/09/24 05:37:10;;;;;;;41.10;25.00;;;16.00;99.90;;;;;;5012018;28;20068;-77
2021/09/24 05:39:37;;;;;;;46.50;26.58;;;16.10;99.90;;;;;;5026886;28;20396;-81
2021/09/24 05:42:04;;;;;;;46.03;27.52;;;16.10;99.90;;;;;;5012002;28;20041;-80
2021/09/24 05:44:30;;;;;;;44.70;26.50;;;16.10;99.90;;;;;;4995224;28;20064;-80
2021/09/24 05:46:57;;;;;;;42.60;25.65;;;16.10;99.90;;;;;;5009663;28;20698;-86
2021/09/24 05:49:25;;;;;;;41.53;24.52;;;16.20;99.90;;;;;;5016974;28;20056;-85
2021/09/24 05:51:55;;;;;;;42.92;24.73;;;16.20;99.90;;;;;;4998765;28;20518;-86
2021/09/24 05:54:22;;;;;;;47.80;27.23;;;16.20;99.90;;;;;;5027857;28;20041;-85
2021/09/24 05:56:49;;;;;;;53.00;28.55;;;16.20;99.90;;;;;;4994463;28;20052;-83
2021/09/24 05:59:15;;;;;;;50.08;28.35;;;16.30;99.90;;;;;;5011115;28;20040;-83
2021/09/24 06:01:42;;;;;;;52.70;28.17;;;16.30;99.90;;;;;;5028389;28;20047;-84
2021/09/24 06:04:09;;;;;;;55.40;27.33;;;16.30;99.90;;;;;;5033993;28;20424;-85
2021/09/24 06:06:35;;;;;;;58.13;31.65;;;16.30;99.90;;;;;;5031533;28;20051;-85
2021/09/24 06:09:02;;;;;;;48.67;27.88;;;16.40;99.90;;;;;;5010848;28;20531;-86
2021/09/24 06:11:32;;;;;;;60.58;29.80;;;16.40;99.90;;;;;;5013652;28;20037;-87
2021/09/24 06:14:01;;;;;;;61.13;30.70;;;16.40;99.90;;;;;;5026542;28;20047;-86
2021/09/24 06:16:28;;;;;;;59.00;28.02;;;16.40;99.90;;;;;;5009299;28;20037;-87
2021/09/24 06:18:54;;;;;;;59.80;32.40;;;16.50;99.90;;;;;;5028362;28;20036;-87
2021/09/24 06:21:23;;;;;;;62.88;33.10;;;16.50;99.90;;;;;;5002571;28;20042;-87
2021/09/24 06:23:50;;;;;;;58.63;31.90;;;16.50;99.90;;;;;;5003471;28;20057;-86
2021/09/24 06:26:17;;;;;;;55.85;32.78;;;16.50;99.90;;;;;;5012866;28;20041;-86
2021/09/24 06:28:43;;;;;;;56.30;30.80;;;16.50;99.90;;;;;;5029570;28;20357;-87
2021/09/24 06:31:13;;;;;;;55.78;30.45;;;16.60;99.90;;;;;;5030721;28;20037;-86
2021/09/24 06:33:39;;;;;;;55.25;31.13;;;16.60;99.90;;;;;;5024678;28;20056;-87
2021/09/24 06:36:06;;;;;;;58.72;32.92;;;16.60;99.90;;;;;;5015416;28;20060;-81
2021/09/24 06:38:32;;;;;;;56.22;29.92;;;16.60;99.90;;;;;;5012838;28;20048;-81
2021/09/24 06:40:59;;;;;;;49.15;29.25;;;16.60;99.90;;;;;;5009379;28;20053;-80
2021/09/24 06:43:25;;;;;;;50.88;29.83;;;16.70;99.90;;;;;;4994335;28;20860;-80
2021/09/24 06:45:52;;;;;;;56.85;32.28;;;16.70;99.90;;;;;;5030660;28;20622;-80
2021/09/24 06:48:18;;;;;;;50.42;28.98;;;16.70;99.90;;;;;;5016534;28;20048;-80
2021/09/24 06:50:45;;;;;;;56.97;31.55;;;16.70;99.90;;;;;;5012899;28;20381;-80
2021/09/24 06:53:11;;;;;;;50.10;30.08;;;16.80;99.90;;;;;;5016053;28;20392;-80
2021/09/24 06:55:38;;;;;;;39.08;23.83;;;16.80;99.90;;;;;;5012686;28;20038;-81
2021/09/24 06:58:04;;;;;;;48.40;28.17;;;16.80;99.90;;;;;;5011545;28;20041;-86
2021/09/24 07:00:31;;;;;;;47.40;28.42;;;16.80;99.90;;;;;;5029018;28;20049;-87
2021/09/24 07:03:00;;;;;;;47.15;26.92;;;16.80;99.90;;;;;;5004507;28;20052;-87
2021/09/24 07:05:29;;;;;;;50.55;28.80;;;16.80;99.90;;;;;;5015934;28;20050;-87
2021/09/24 07:07:55;;;;;;;50.17;27.38;;;16.80;99.90;;;;;;4994515;28;20053;-88
2021/09/24 07:10:22;;;;;;;39.65;25.88;;;16.90;99.90;;;;;;5020724;28;20045;-87
2021/09/24 07:12:48;;;;;;;50.20;28.35;;;16.90;99.90;;;;;;5014405;28;20056;-87
2021/09/24 07:15:15;;;;;;;44.35;27.27;;;16.90;99.90;;;;;;5018247;28;20052;-80
2021/09/24 07:17:42;;;;;;;52.72;30.30;;;16.90;99.90;;;;;;5013369;28;20484;-80
2021/09/24 07:20:09;;;;;;;47.35;28.80;;;16.90;99.90;;;;;;5012440;28;20046;-81
2021/09/24 07:22:35;;;;;;;58.67;32.95;;;16.90;99.90;;;;;;5045400;28;20033;-82
2021/09/24 07:25:03;;;;;;;50.00;29.40;;;16.90;99.90;;;;;;5016549;28;20041;-80
2021/09/24 07:27:30;;;;;;;42.40;26.42;;;16.90;99.90;;;;;;5028181;28;20049;-82
2021/09/24 07:29:57;;;;;;;36.83;22.05;;;17.00;99.90;;;;;;5039697;28;20041;-79
2021/09/24 07:32:23;;;;;;;48.60;28.60;;;17.00;99.90;;;;;;5035962;28;20045;-81
2021/09/24 07:34:50;;;;;;;45.47;28.20;;;17.00;99.90;;;;;;5015767;28;20523;-82
2021/09/24 07:37:17;;;;;;;42.53;26.42;;;17.10;99.90;;;;;;5026326;28;20041;-83
2021/09/24 07:39:43;;;;;;;52.30;32.03;;;17.10;99.90;;;;;;5032221;28;20045;-81
2021/09/24 07:42:10;;;;;;;57.00;35.60;;;17.10;99.90;;;;;;5005174;28;20053;-82
2021/09/24 07:44:37;;;;;;;54.53;32.30;;;17.20;99.90;;;;;;4990177;28;20057;-81
2021/09/24 07:47:04;;;;;;;42.92;29.30;;;17.10;99.90;;;;;;5011460;28;20045;-83
2021/09/24 07:49:30;;;;;;;41.00;26.27;;;17.20;99.90;;;;;;5013751;28;20045;-81
2021/09/24 07:51:57;;;;;;;44.63;29.00;;;17.20;99.90;;;;;;5032447;28;20037;-78
2021/09/24 07:54:24;;;;;;;46.40;29.30;;;17.30;99.90;;;;;;5012255;28;20072;-79
2021/09/24 07:56:51;;;;;;;36.33;24.80;;;17.30;99.90;;;;;;4999301;28;20045;-79
2021/09/24 07:59:19;;;;;;;51.67;31.10;;;17.30;99.90;;;;;;5031599;28;20040;-79
2021/09/24 08:01:46;;;;;;;47.55;28.98;;;17.30;99.90;;;;;;5015405;28;20049;-79
2021/09/24 08:04:13;;;;;;;53.97;32.88;;;17.30;99.90;;;;;;5032090;28;20041;-79
2021/09/24 08:06:39;;;;;;;53.35;33.13;;;17.40;99.90;;;;;;5026734;28;20049;-79
2021/09/24 08:09:06;;;;;;;52.92;31.52;;;17.40;99.90;;;;;;5030077;28;20053;-78
2021/09/24 08:11:32;;;;;;;55.60;32.60;;;17.50;99.90;;;;;;4995259;28;20053;-79
2021/09/24 08:13:59;;;;;;;54.20;29.95;;;17.40;99.90;;;;;;5015411;28;20469;-80
2021/09/24 08:16:26;;;;;;;51.80;30.17;;;17.50;99.90;;;;;;4992280;28;20515;-80
2021/09/24 08:18:52;;;;;;;56.90;31.65;;;17.50;99.90;;;;;;4995949;28;20076;-80
2021/09/24 08:21:22;;;;;;;63.65;35.28;;;17.50;99.90;;;;;;5012965;28;20045;-80
2021/09/24 08:23:51;;;;;;;59.63;33.60;;;17.60;99.90;;;;;;5014449;28;20064;-80
2021/09/24 08:26:18;;;;;;;60.58;35.15;;;17.60;99.90;;;;;;5046682;28;20036;-78
2021/09/24 08:28:44;;;;;;;65.70;35.70;;;17.70;99.90;;;;;;4999075;28;20069;-82
2021/09/24 08:31:11;;;;;;;67.53;35.83;;;17.70;99.90;;;;;;4982362;28;20052;-82
2021/09/24 08:33:38;;;;;;;69.15;38.60;;;17.80;99.90;;;;;;5012108;28;20048;-81
2021/09/24 08:36:06;;;;;;;63.85;34.63;;;17.80;99.90;;;;;;5029388;28;20044;-81
2021/09/24 08:38:32;;;;;;;59.80;32.65;;;17.80;99.90;;;;;;5002073;28;20516;-81
2021/09/24 08:40:59;;;;;;;64.47;34.28;;;17.80;99.90;;;;;;5003284;28;20389;-82
2021/09/24 08:43:26;;;;;;;66.47;35.38;;;17.70;99.90;;;;;;5014653;28;20045;-82
2021/09/24 08:45:54;;;;;;;70.18;38.55;;;17.80;99.90;;;;;;5014919;28;20080;-82
2021/09/24 08:48:20;;;;;;;65.72;37.25;;;17.80;99.90;;;;;;5012495;28;20633;-81
2021/09/24 08:50:50;;;;;;;66.13;36.67;;;17.90;99.90;;;;;;5032142;28;20041;-81
2021/09/24 08:53:19;;;;;;;71.10;38.08;;;18.00;99.90;;;;;;5016487;28;20045;-81
2021/09/24 08:55:46;;;;;;;67.68;37.90;;;18.00;99.90;;;;;;5004097;28;20045;-78
2021/09/24 08:58:13;;;;;;;60.17;34.08;;;18.00;99.90;;;;;;5015106;28;20041;-79
2021/09/24 09:00:42;;;;;;;61.78;35.35;;;18.10;99.90;;;;;;4984183;28;20045;-79
2021/09/24 09:03:14;;;;;;;65.95;36.35;;;18.20;99.90;;;;;;5002494;28;20044;-79
2021/09/24 09:05:45;;;;;;;52.97;31.13;;;18.30;99.90;;;;;;5009755;28;20481;-83
2021/09/24 09:08:20;;;;;;;59.13;34.23;;;18.30;99.90;;;;;;5042726;28;20064;-85
2021/09/24 09:10:55;;;;;;;63.33;34.95;;;18.40;99.90;;;;;;5017065;28;20056;-85
2021/09/24 09:13:28;;;;;;;57.38;33.85;;;18.40;99.90;;;;;;5034886;28;20109;-84
2021/09/24 09:16:13;;;;;;;;;;;18.50;99.90;;;;;;5022811;28;20050;-88
2021/09/24 09:18:43;;;;;;;60.15;33.25;;;18.60;99.90;;;;;;5008977;28;19913;-87
2021/09/24 09:21:13;;;;;;;59.47;34.35;;;18.70;99.90;;;;;;5014042;28;20041;-81
2021/09/24 09:23:48;;;;;;;54.85;32.83;;;18.80;99.90;;;;;;5011154;28;20064;-81
2021/09/24 09:26:16;;;;;;;55.88;33.38;;;18.80;99.90;;;;;;5011656;28;20037;-81
2021/09/24 09:28:57;;;;;;;50.38;33.55;;;18.90;99.90;;;;;;4998531;28;20041;-81
2021/09/24 09:31:26;;;;;;;52.33;33.90;;;19.00;99.90;;;;;;5012147;28;20046;-81
2021/09/24 09:33:54;;;;;;;44.78;31.15;;;19.20;99.90;;;;;;5030385;28;20037;-81
2021/09/24 09:36:23;;;;;;;41.92;29.20;;;19.30;99.90;;;;;;5016874;28;20060;-80
2021/09/24 09:38:50;;;;;;;44.60;31.42;;;19.40;99.90;;;;;;5027154;28;20100;-83
2021/09/24 09:41:17;;;;;;;37.75;26.85;;;19.50;99.90;;;;;;5031518;28;20044;-83
2021/09/24 09:43:53;;;;;;;39.72;28.73;;;19.50;99.90;;;;;;5015988;28;20048;-84
2021/09/24 09:46:35;;;;;;;38.47;26.45;;;19.70;99.90;;;;;;5016964;28;20365;-84
2021/09/24 09:49:22;;;;;;;;;;;;;;;;;;;;;
2021/09/24 09:52:12;;;;;;;36.67;26.30;;;19.90;99.90;;;;;;5033877;28;20052;-84
2021/09/24 09:54:39;;;;;;;30.25;23.05;;;19.80;99.90;;;;;;5044685;28;20033;-83
2021/09/24 09:57:11;;;;;;;32.65;24.88;;;19.90;99.90;;;;;;4996065;28;20400;-83
2021/09/24 09:59:37;;;;;;;34.50;26.42;;;20.00;99.90;;;;;;5032644;28;20037;-83
2021/09/24 10:02:43;;;;;;;28.08;21.75;;;20.10;99.90;;;;;;5004294;28;20068;-83
2021/09/24 10:05:09;;;;;;;25.52;21.77;;;20.20;99.90;;;;;;5006058;28;20048;-84
2021/09/24 10:07:38;;;;;;;25.70;19.00;;;20.50;99.90;;;;;;4992668;28;20041;-83
2021/09/24 10:10:12;;;;;;;24.73;19.75;;;20.80;99.90;;;;;;5010712;28;20037;-82
2021/09/24 10:12:40;;;;;;;24.83;19.75;;;21.10;99.90;;;;;;5007892;28;20519;-80
2021/09/24 10:15:11;;;;;;;24.35;19.10;;;21.30;99.90;;;;;;5015215;28;20109;-83
2021/09/24 10:17:38;;;;;;;28.17;21.17;;;21.50;99.90;;;;;;5007722;28;20404;-83
2021/09/24 10:20:08;;;;;;;19.88;16.27;;;21.60;99.90;;;;;;4996263;28;20045;-85
2021/09/24 10:22:34;;;;;;;18.08;14.27;;;21.70;99.90;;;;;;5044278;28;20465;-83
2021/09/24 10:25:01;;;;;;;19.10;15.10;;;21.70;99.90;;;;;;5009823;28;20050;-82
2021/09/24 10:27:32;;;;;;;14.27;12.43;;;21.70;99.90;;;;;;5009982;28;20063;-83
2021/09/24 10:30:12;;;;;;;19.73;14.93;;;21.60;99.90;;;;;;5028165;28;20520;-83
2021/09/24 10:33:00;;;;;;;15.52;12.68;;;21.70;99.90;;;;;;5014450;28;20050;-83
2021/09/24 10:35:49;;;;;;;14.00;12.60;;;21.70;99.90;;;;;;5011676;28;20041;-83
2021/09/24 10:38:18;;;;;;;17.63;14.60;;;21.80;99.90;;;;;;5016796;28;20040;-83
2021/09/24 10:41:03;;;;;;;14.93;12.15;;;21.90;99.90;;;;;;5018246;28;20036;-83
2021/09/24 10:43:54;;;;;;;16.15;14.50;;;22.10;99.90;;;;;;5013559;28;20041;-82
2021/09/24 10:46:24;;;;;;;14.05;12.57;;;22.20;99.20;;;;;;5027008;28;20037;-82
2021/09/24 10:49:16;;;;;;;13.43;12.07;;;22.10;99.20;;;;;;5012737;28;20042;-81
2021/09/24 10:52:08;;;;;;;14.88;12.13;;;22.10;99.10;;;;;;5024901;28;20049;-80
2021/09/24 10:54:56;;;;;;;12.52;10.70;;;21.90;99.10;;;;;;5024042;28;20033;-79
2021/09/24 10:57:23;;;;;;;12.82;11.00;;;21.90;99.30;;;;;;5026086;28;20041;-81
2021/09/24 10:59:50;;;;;;;11.55;10.35;;;21.90;99.30;;;;;;5010494;28;20045;-81
2021/09/24 11:02:42;;;;;;;12.07;10.88;;;22.30;99.60;;;;;;5012411;28;20052;-81
2021/09/24 11:05:08;;;;;;;10.50;9.38;;;23.20;98.90;;;;;;5029411;28;20048;-83
2021/09/24 11:07:36;;;;;;;11.43;10.07;;;23.60;97.10;;;;;;5018261;28;20657;-82
2021/09/24 11:10:07;;;;;;;8.90;8.02;;;23.70;96.40;;;;;;5021472;28;20057;-82
2021/09/24 11:12:54;;;;;;;9.18;7.75;;;23.60;96.20;;;;;;5020220;28;20037;-83
2021/09/24 11:15:20;;;;;;;8.32;7.13;;;23.50;96.10;;;;;;5022284;28;20037;-84
2021/09/24 11:17:48;;;;;;;8.57;7.78;;;23.70;96.20;;;;;;5013632;28;20042;-84
2021/09/24 11:20:36;;;;;;;10.20;8.88;;;23.90;95.70;;;;;;5029712;28;20052;-79
2021/09/24 11:23:35;;;;;;;9.57;8.02;;;23.90;94.70;;;;;;5029169;28;20488;-79
2021/09/24 11:26:25;;;;;;;10.98;9.85;;;23.90;94.80;;;;;;5013853;28;20534;-78
2021/09/24 11:29:10;;;;;;;9.98;8.45;;;23.90;94.50;;;;;;5026986;28;20044;-79
2021/09/24 11:31:55;;;;;;;11.32;9.30;;;23.80;94.50;;;;;;5014315;28;20048;-79
2021/09/24 11:34:39;;;;;;;10.88;8.80;;;23.60;94.40;;;;;;5017439;28;20052;-79
2021/09/24 11:37:09;;;;;;;10.88;9.52;;;23.50;94.60;;;;;;5009055;28;20060;-79
2021/09/24 11:39:37;;;;;;;11.50;8.68;;;23.70;94.70;;;;;;5030690;28;20046;-79
2021/09/24 11:42:06;;;;;;;9.35;7.47;;;24.30;94.40;;;;;;5031078;28;20061;-78
2021/09/24 11:44:36;;;;;;;13.93;10.43;;;24.80;93.80;;;;;;5027657;28;20041;-79
2021/09/24 11:47:19;;;;;;;10.68;8.23;;;24.90;92.80;;;;;;5031427;28;20473;-78
2021/09/24 11:50:14;;;;;;;8.15;7.32;;;24.80;92.90;;;;;;5032573;28;20056;-79
2021/09/24 11:52:48;;;;;;;8.82;8.02;;;24.70;92.90;;;;;;5030859;28;20053;-79
2021/09/24 11:55:24;;;;;;;12.50;10.13;;;24.60;92.90;;;;;;5040810;28;20048;-79
2021/09/24 11:58:02;;;;;;;12.02;10.00;;;24.40;92.90;;;;;;5029912;28;20045;-79
2021/09/24 12:00:37;;;;;;;10.20;8.73;;;24.40;92.80;;;;;;5014389;28;20045;-79
2021/09/24 12:03:12;;;;;;;11.82;10.63;;;24.40;92.70;;;;;;5021266;28;20055;-79
2021/09/24 12:05:40;;;;;;;11.80;10.43;;;24.50;92.50;;;;;;5021524;28;20041;-80
2021/09/24 12:08:18;;;;;;;12.38;11.10;;;24.70;92.00;;;;;;5035318;28;20044;-81
2021/09/24 12:10:45;;;;;;;13.20;11.95;;;25.00;91.80;;;;;;5022839;28;20039;-80
2021/09/24 12:13:16;;;;;;;11.43;10.38;;;25.30;91.30;;;;;;5022546;28;20328;-80
2021/09/24 12:16:02;;;;;;;;;;;25.20;91.10;;;;;;5036113;28;20448;-79
2021/09/24 12:18:50;;;;;;;14.07;12.43;;;25.20;91.00;;;;;;5033270;28;19913;-80
2021/09/24 12:21:20;;;;;;;11.82;10.57;;;25.40;90.80;;;;;;5017302;28;20032;-80
2021/09/24 12:23:47;;;;;;;13.23;11.82;;;25.70;90.70;;;;;;5031913;28;20511;-79
2021/09/24 12:26:17;;;;;;;12.38;11.25;;;25.90;90.50;;;;;;5023425;28;20033;-79
2021/09/24 12:29:06;;;;;;;12.98;11.00;;;26.10;90.00;;;;;;5036038;28;20504;-80
2021/09/24 12:31:47;;;;;;;14.80;13.30;;;25.90;89.50;;;;;;5020581;28;20033;-77
2021/09/24 12:34:23;;;;;;;15.85;14.35;;;25.60;89.10;;;;;;5038110;28;20029;-79
2021/09/24 12:36:57;;;;;;;14.50;12.68;;;25.20;89.30;;;;;;5035602;28;20045;-79
2021/09/24 12:39:27;;;;;;;11.43;10.45;;;24.70;90.00;;;;;;5033744;28;20441;-79
2021/09/24 12:42:00;;;;;;;12.13;11.02;;;24.40;90.50;;;;;;5039949;28;20053;-78
2021/09/24 12:44:27;;;;;;;13.27;11.88;;;24.20;90.80;;;;;;5018218;28;20042;-80
2021/09/24 12:46:59;;;;;;;14.13;11.40;;;24.60;91.10;;;;;;5021717;28;20037;-78
2021/09/24 12:49:31;;;;;;;11.98;10.77;;;25.50;90.30;;;;;;5037237;28;20030;-79